CFG4HA EDLW-LEPA
Flight info
| Callsign | CFG4HA |
|---|---|
| Flight time | N/A |
| Altitude | 32000 |
| Route | BAMSU2U/24 BAMSU M170 NVO Y841 KENUM DCT GESLO DCT LIMGO/N0452F330 DCT SUTAL DCT GTQ DCT POGOL DCT LASAT DCT MOROK DCT GILIR DCT GEVEA DCT INCUS DCT BALSI DCT RETNO/N0453F350 DCT TUPOX DCT MTG DCT DIVKO DCT VATIR N852 VERSO DCT LUNIK |
| Aircraft | A321/M-SDE3FGHIJ1LORVWXYZ/LB1D1 |
Departure
| Time | N/A |
|---|---|
| Airport | Dortmund Airport (EDLW) |
Arrival
| Time | 2026-05-04 18:50 |
|---|---|
| Airport | Palma de Mallorca Airport (LEPA) |
| Time | Latitude | Longitude | Altitude | Speed | Heading |
|---|---|---|---|---|---|
| 2026-05-04 17:41 | 45.88526 | 6.05042 | 33026 ft | 411 kts | 192° |
| 2026-05-04 17:42 | 45.82915 | 6.03812 | 33032 ft | 410 kts | 192° |
| 2026-05-04 17:42 | 45.77268 | 6.02572 | 33032 ft | 411 kts | 192° |
| 2026-05-04 17:43 | 45.71648 | 6.01324 | 33035 ft | 411 kts | 192° |
| 2026-05-04 17:43 | 45.66003 | 6.00069 | 33030 ft | 410 kts | 192° |
| 2026-05-04 17:44 | 45.60319 | 5.98822 | 33020 ft | 410 kts | 192° |
| 2026-05-04 17:44 | 45.54772 | 5.97619 | 33021 ft | 410 kts | 192° |
| 2026-05-04 17:45 | 45.49113 | 5.96374 | 33028 ft | 410 kts | 192° |
| 2026-05-04 17:45 | 45.43505 | 5.94933 | 33029 ft | 409 kts | 195° |
| 2026-05-04 17:46 | 45.37963 | 5.93132 | 33030 ft | 409 kts | 196° |
| 2026-05-04 17:46 | 45.32426 | 5.91298 | 33044 ft | 409 kts | 196° |
| 2026-05-04 17:47 | 45.26866 | 5.89532 | 33048 ft | 409 kts | 195° |
| 2026-05-04 17:47 | 45.21296 | 5.87809 | 33031 ft | 410 kts | 195° |
| 2026-05-04 17:48 | 45.15723 | 5.86090 | 33046 ft | 411 kts | 195° |
| 2026-05-04 17:48 | 45.10141 | 5.84375 | 33037 ft | 410 kts | 195° |
| 2026-05-04 17:49 | 45.04562 | 5.82656 | 33038 ft | 410 kts | 195° |
| 2026-05-04 17:49 | 44.98964 | 5.80930 | 33022 ft | 413 kts | 195° |
| 2026-05-04 17:50 | 44.93360 | 5.79199 | 33020 ft | 412 kts | 195° |
| 2026-05-04 17:50 | 44.87762 | 5.77488 | 33019 ft | 412 kts | 195° |
| 2026-05-04 17:51 | 44.82157 | 5.75779 | 33011 ft | 412 kts | 195° |
| 2026-05-04 17:51 | 44.76561 | 5.74064 | 33018 ft | 412 kts | 195° |
| 2026-05-04 17:52 | 44.70952 | 5.72339 | 33033 ft | 413 kts | 195° |
| 2026-05-04 17:52 | 44.65331 | 5.70627 | 33067 ft | 413 kts | 195° |
| 2026-05-04 17:53 | 44.59722 | 5.68919 | 33073 ft | 412 kts | 194° |
| 2026-05-04 17:53 | 44.54147 | 5.67232 | 33064 ft | 412 kts | 195° |
| 2026-05-04 17:54 | 44.48499 | 5.65520 | 33071 ft | 413 kts | 194° |
| 2026-05-04 17:54 | 44.42893 | 5.63828 | 33056 ft | 412 kts | 195° |
| 2026-05-04 17:55 | 44.37364 | 5.61993 | 33054 ft | 409 kts | 202° |
| 2026-05-04 17:55 | 44.32045 | 5.59081 | 33050 ft | 408 kts | 203° |
| 2026-05-04 17:56 | 44.26799 | 5.56201 | 33030 ft | 408 kts | 204° |
| 2026-05-04 17:56 | 44.21512 | 5.53318 | 33049 ft | 408 kts | 204° |
| 2026-05-04 17:57 | 44.16238 | 5.50453 | 33046 ft | 407 kts | 204° |
| 2026-05-04 17:57 | 44.10960 | 5.47583 | 33052 ft | 406 kts | 204° |
| 2026-05-04 17:58 | 44.05718 | 5.44730 | 33037 ft | 406 kts | 204° |
| 2026-05-04 17:58 | 44.00468 | 5.41876 | 33044 ft | 405 kts | 204° |
| 2026-05-04 17:59 | 43.95229 | 5.39035 | 33042 ft | 404 kts | 204° |
| 2026-05-04 18:00 | 43.87373 | 5.34773 | 33026 ft | 403 kts | 204° |
| 2026-05-04 18:00 | 43.82156 | 5.31971 | 33046 ft | 402 kts | 204° |
| 2026-05-04 18:01 | 43.76936 | 5.29163 | 33003 ft | 403 kts | 204° |
| 2026-05-04 18:01 | 43.71726 | 5.26361 | 32981 ft | 402 kts | 204° |
| 2026-05-04 18:02 | 43.63911 | 5.22164 | 32959 ft | 401 kts | 204° |
| 2026-05-04 18:02 | 43.59589 | 5.19851 | 32962 ft | 401 kts | 204° |
| 2026-05-04 18:03 | 43.54354 | 5.17059 | 32966 ft | 400 kts | 204° |
| 2026-05-04 18:03 | 43.49164 | 5.14288 | 32956 ft | 400 kts | 204° |
| 2026-05-04 18:04 | 43.43976 | 5.11528 | 32976 ft | 399 kts | 204° |
| 2026-05-04 18:05 | 43.36492 | 5.06682 | 32963 ft | 395 kts | 216° |
| 2026-05-04 18:05 | 43.31969 | 5.02393 | 32951 ft | 396 kts | 216° |
| 2026-05-04 18:06 | 43.25151 | 4.95977 | 32993 ft | 396 kts | 216° |
| 2026-05-04 18:06 | 43.20605 | 4.91702 | 32997 ft | 396 kts | 216° |
| 2026-05-04 18:07 | 43.16051 | 4.87428 | 33180 ft | 398 kts | 216° |
| 2026-05-04 18:07 | 43.13773 | 4.85297 | 33419 ft | 398 kts | 216° |
| 2026-05-04 18:07 | 43.11493 | 4.83160 | 33664 ft | 397 kts | 214° |
| 2026-05-04 18:08 | 43.09213 | 4.81034 | 33963 ft | 396 kts | 216° |
| 2026-05-04 18:08 | 43.06941 | 4.78907 | 33955 ft | 393 kts | 215° |
| 2026-05-04 18:08 | 43.02230 | 4.75112 | 33972 ft | 394 kts | 211° |
| 2026-05-04 18:09 | 42.92658 | 4.67860 | 33954 ft | 393 kts | 211° |
| 2026-05-04 18:10 | 42.87867 | 4.64231 | 33957 ft | 394 kts | 211° |
| 2026-05-04 18:10 | 42.83074 | 4.60616 | 33956 ft | 394 kts | 211° |
| 2026-05-04 18:11 | 42.78271 | 4.57007 | 33973 ft | 394 kts | 211° |
| 2026-05-04 18:11 | 42.73470 | 4.53399 | 33955 ft | 395 kts | 211° |
| 2026-05-04 18:12 | 42.68660 | 4.49782 | 33942 ft | 395 kts | 211° |
| 2026-05-04 18:12 | 42.63850 | 4.46162 | 33938 ft | 396 kts | 211° |
| 2026-05-04 18:13 | 42.59009 | 4.42547 | 33840 ft | 397 kts | 211° |
| 2026-05-04 18:13 | 42.54199 | 4.38976 | 32907 ft | 387 kts | 211° |
| 2026-05-04 18:14 | 42.51826 | 4.37205 | 32934 ft | 391 kts | 211° |
| 2026-05-04 18:14 | 42.47002 | 4.33575 | 32945 ft | 398 kts | 211° |
| 2026-05-04 18:15 | 42.37281 | 4.26366 | 32938 ft | 399 kts | 211° |
| 2026-05-04 18:16 | 42.32418 | 4.22764 | 32916 ft | 399 kts | 210° |
| 2026-05-04 18:16 | 42.27542 | 4.19166 | 32960 ft | 401 kts | 211° |
| 2026-05-04 18:17 | 42.20184 | 4.13755 | 32951 ft | 400 kts | 211° |
| 2026-05-04 18:18 | 42.12993 | 4.08480 | 32893 ft | 394 kts | 211° |
| 2026-05-04 18:18 | 42.08142 | 4.04901 | 32897 ft | 393 kts | 210° |
| 2026-05-04 18:19 | 42.00991 | 3.99649 | 32922 ft | 396 kts | 212° |
| 2026-05-04 18:19 | 41.96133 | 3.96054 | 32927 ft | 400 kts | 211° |
| 2026-05-04 18:20 | 41.91071 | 3.93098 | 32902 ft | 402 kts | 198° |
| 2026-05-04 18:20 | 41.85534 | 3.91781 | 32916 ft | 405 kts | 194° |
| 2026-05-04 18:21 | 41.79984 | 3.90500 | 32928 ft | 405 kts | 194° |
| 2026-05-04 18:21 | 41.74429 | 3.89216 | 32938 ft | 405 kts | 194° |
| 2026-05-04 18:22 | 41.68875 | 3.87933 | 32928 ft | 406 kts | 194° |
| 2026-05-04 18:22 | 41.63344 | 3.86671 | 32923 ft | 402 kts | 194° |
| 2026-05-04 18:23 | 41.57820 | 3.85405 | 32928 ft | 404 kts | 194° |
| 2026-05-04 18:23 | 41.52290 | 3.84130 | 32926 ft | 403 kts | 194° |
| 2026-05-04 18:24 | 41.46773 | 3.82865 | 32903 ft | 402 kts | 195° |
| 2026-05-04 18:24 | 41.41243 | 3.81596 | 32906 ft | 404 kts | 195° |
| 2026-05-04 18:25 | 41.35695 | 3.80330 | 32940 ft | 404 kts | 194° |
| 2026-05-04 18:25 | 41.30155 | 3.79077 | 32929 ft | 403 kts | 194° |
| 2026-05-04 18:26 | 41.24644 | 3.77825 | 32916 ft | 402 kts | 195° |
| 2026-05-04 18:26 | 41.19136 | 3.76572 | 32919 ft | 402 kts | 195° |
| 2026-05-04 18:27 | 41.13745 | 3.74901 | 32914 ft | 394 kts | 205° |
| 2026-05-04 18:27 | 41.08642 | 3.72257 | 32915 ft | 394 kts | 205° |
| 2026-05-04 18:28 | 41.03529 | 3.69621 | 32894 ft | 395 kts | 205° |
| 2026-05-04 18:28 | 40.98402 | 3.66983 | 32908 ft | 395 kts | 205° |
| 2026-05-04 18:29 | 40.93302 | 3.64363 | 32907 ft | 395 kts | 205° |
| 2026-05-04 18:29 | 40.88146 | 3.61718 | 32915 ft | 396 kts | 205° |
| 2026-05-04 18:30 | 40.83002 | 3.59092 | 32642 ft | 397 kts | 205° |
| 2026-05-04 18:30 | 40.80461 | 3.57794 | 32384 ft | 397 kts | 205° |
| 2026-05-04 18:30 | 40.77880 | 3.56473 | 32127 ft | 398 kts | 205° |
| 2026-05-04 18:31 | 40.75302 | 3.55153 | 31877 ft | 399 kts | 205° |
| 2026-05-04 18:31 | 40.72708 | 3.53829 | 31225 ft | 401 kts | 205° |
| 2026-05-04 18:31 | 40.70093 | 3.52496 | 30456 ft | 406 kts | 205° |
| 2026-05-04 18:31 | 40.67443 | 3.51149 | 29487 ft | 411 kts | 205° |
| 2026-05-04 18:32 | 40.64765 | 3.49791 | 28562 ft | 413 kts | 205° |
| 2026-05-04 18:32 | 40.62075 | 3.48425 | 27767 ft | 413 kts | 205° |
| 2026-05-04 18:32 | 40.59419 | 3.47079 | 27288 ft | 406 kts | 205° |
| 2026-05-04 18:32 | 40.56797 | 3.45750 | 26717 ft | 401 kts | 205° |
| 2026-05-04 18:33 | 40.54175 | 3.44420 | 26161 ft | 396 kts | 205° |
| 2026-05-04 18:33 | 40.51655 | 3.43144 | 25613 ft | 392 kts | 205° |
| 2026-05-04 18:33 | 40.49089 | 3.41847 | 25072 ft | 388 kts | 205° |
| 2026-05-04 18:33 | 40.46575 | 3.40588 | 24412 ft | 387 kts | 204° |
| 2026-05-04 18:34 | 40.44008 | 3.39398 | 23446 ft | 396 kts | 202° |
| 2026-05-04 18:34 | 40.41384 | 3.38269 | 22280 ft | 398 kts | 201° |
| 2026-05-04 18:34 | 40.38778 | 3.37201 | 21186 ft | 395 kts | 201° |
| 2026-05-04 18:34 | 40.36192 | 3.36160 | 20141 ft | 382 kts | 201° |
| 2026-05-04 18:35 | 40.33691 | 3.35149 | 19173 ft | 370 kts | 201° |
| 2026-05-04 18:35 | 40.31266 | 3.34147 | 18247 ft | 360 kts | 201° |
| 2026-05-04 18:35 | 40.28912 | 3.33158 | 17253 ft | 351 kts | 201° |
| 2026-05-04 18:35 | 40.26588 | 3.32174 | 16291 ft | 342 kts | 201° |
| 2026-05-04 18:36 | 40.24383 | 3.31238 | 15408 ft | 334 kts | 201° |
| 2026-05-04 18:36 | 40.22175 | 3.30298 | 14334 ft | 331 kts | 200° |
| 2026-05-04 18:36 | 40.20077 | 3.29402 | 14152 ft | 303 kts | 201° |
| 2026-05-04 18:36 | 40.18131 | 3.28576 | 13731 ft | 289 kts | 201° |
| 2026-05-04 18:37 | 40.16242 | 3.27777 | 13024 ft | 282 kts | 201° |
| 2026-05-04 18:37 | 40.14397 | 3.26996 | 12609 ft | 279 kts | 201° |
| 2026-05-04 18:37 | 40.12543 | 3.26205 | 12354 ft | 282 kts | 201° |
| 2026-05-04 18:37 | 40.10721 | 3.25432 | 12115 ft | 281 kts | 201° |
| 2026-05-04 18:38 | 40.08867 | 3.24655 | 11789 ft | 278 kts | 201° |
| 2026-05-04 18:38 | 40.07043 | 3.23891 | 11422 ft | 276 kts | 201° |
| 2026-05-04 18:38 | 40.05203 | 3.23119 | 11043 ft | 275 kts | 201° |
| 2026-05-04 18:38 | 40.03397 | 3.22363 | 10767 ft | 271 kts | 201° |
| 2026-05-04 18:39 | 40.01599 | 3.21608 | 10688 ft | 272 kts | 201° |
| 2026-05-04 18:39 | 39.99804 | 3.20851 | 10579 ft | 271 kts | 201° |
| 2026-05-04 18:39 | 39.98008 | 3.20094 | 10456 ft | 271 kts | 202° |
| 2026-05-04 18:39 | 39.96213 | 3.19340 | 10340 ft | 271 kts | 201° |
| 2026-05-04 18:40 | 39.94423 | 3.18591 | 10222 ft | 270 kts | 201° |
| 2026-05-04 18:40 | 39.92641 | 3.17847 | 10098 ft | 269 kts | 201° |
| 2026-05-04 18:40 | 39.90855 | 3.17099 | 9987 ft | 269 kts | 201° |
| 2026-05-04 18:40 | 39.89073 | 3.16351 | 9680 ft | 271 kts | 201° |
| 2026-05-04 18:41 | 39.87282 | 3.15598 | 9126 ft | 269 kts | 201° |
| 2026-05-04 18:41 | 39.85516 | 3.14859 | 8644 ft | 264 kts | 201° |
| 2026-05-04 18:41 | 39.83774 | 3.14131 | 8175 ft | 261 kts | 201° |
| 2026-05-04 18:41 | 39.82052 | 3.13413 | 7712 ft | 260 kts | 201° |
| 2026-05-04 18:42 | 39.80328 | 3.12694 | 7256 ft | 261 kts | 201° |
| 2026-05-04 18:42 | 39.78602 | 3.11976 | 6812 ft | 260 kts | 201° |
| 2026-05-04 18:42 | 39.76895 | 3.11264 | 6361 ft | 255 kts | 201° |
| 2026-05-04 18:42 | 39.75222 | 3.10566 | 5893 ft | 249 kts | 201° |
| 2026-05-04 18:43 | 39.73575 | 3.09887 | 5451 ft | 247 kts | 201° |
| 2026-05-04 18:43 | 39.71971 | 3.09115 | 5012 ft | 244 kts | 211° |
| 2026-05-04 18:43 | 39.70622 | 3.07835 | 4592 ft | 239 kts | 227° |
| 2026-05-04 18:43 | 39.69610 | 3.06132 | 4162 ft | 239 kts | 237° |
| 2026-05-04 18:44 | 39.69024 | 3.04893 | 3988 ft | 234 kts | 239° |
| 2026-05-04 18:44 | 39.68485 | 3.03720 | 3957 ft | 223 kts | 239° |
| 2026-05-04 18:44 | 39.67459 | 3.01514 | 3872 ft | 212 kts | 239° |
| 2026-05-04 18:44 | 39.66693 | 2.99877 | 3789 ft | 212 kts | 238° |
| 2026-05-04 18:45 | 39.65924 | 2.98234 | 3688 ft | 213 kts | 238° |
| 2026-05-04 18:45 | 39.65162 | 2.96609 | 3567 ft | 206 kts | 238° |
| 2026-05-04 18:45 | 39.64431 | 2.95051 | 3328 ft | 198 kts | 238° |
| 2026-05-04 18:45 | 39.63720 | 2.93540 | 3073 ft | 195 kts | 238° |
| 2026-05-04 18:46 | 39.63021 | 2.92053 | 2822 ft | 192 kts | 238° |
| 2026-05-04 18:46 | 39.62335 | 2.90592 | 2576 ft | 187 kts | 238° |
| 2026-05-04 18:46 | 39.61675 | 2.89187 | 2343 ft | 177 kts | 238° |
| 2026-05-04 18:46 | 39.61057 | 2.87873 | 2103 ft | 163 kts | 238° |
| 2026-05-04 18:47 | 39.60494 | 2.86674 | 1897 ft | 151 kts | 237° |
| 2026-05-04 18:47 | 39.59965 | 2.85552 | 1705 ft | 142 kts | 237° |
| 2026-05-04 18:47 | 39.59447 | 2.84454 | 1508 ft | 140 kts | 236° |
| 2026-05-04 18:47 | 39.58937 | 2.83376 | 1316 ft | 144 kts | 238° |
| 2026-05-04 18:48 | 39.58427 | 2.82293 | 1138 ft | 141 kts | 236° |
| 2026-05-04 18:48 | 39.57909 | 2.81194 | 957 ft | 140 kts | 236° |
| 2026-05-04 18:48 | 39.57395 | 2.80098 | 752 ft | 140 kts | 238° |
| 2026-05-04 18:48 | 39.56880 | 2.79007 | 572 ft | 143 kts | 237° |
| 2026-05-04 18:49 | 39.56372 | 2.77934 | 365 ft | 140 kts | 237° |
| 2026-05-04 18:49 | 39.55872 | 2.76869 | 196 ft | 138 kts | 237° |
| 2026-05-04 18:49 | 39.55379 | 2.75814 | 49 ft | 135 kts | 237° |
| 2026-05-04 18:49 | 39.54957 | 2.74927 | 37 ft | 82 kts | 239° |
| 2026-05-04 18:50 | 39.54783 | 2.74561 | 38 ft | 35 kts | 238° |
| 2026-05-04 18:50 | 39.54665 | 2.74309 | 38 ft | 31 kts | 239° |
| 2026-05-04 18:50 | 39.54572 | 2.74080 | 38 ft | 27 kts | 253° |
| 2026-05-04 18:50 | 39.54551 | 2.73853 | 38 ft | 18 kts | 270° |
| 2026-05-04 18:51 | 39.54551 | 2.73788 | 38 ft | 3 kts | 276° |
| 2026-05-04 18:51 | 39.54572 | 2.73747 | 38 ft | 5 kts | 329° |
| 2026-05-04 18:51 | 39.54604 | 2.73747 | 37 ft | 5 kts | 25° |
| 2026-05-04 18:51 | 39.54635 | 2.73804 | 38 ft | 10 kts | 59° |
| 2026-05-04 18:52 | 39.54671 | 2.73879 | 38 ft | 9 kts | 58° |
| 2026-05-04 18:52 | 39.54703 | 2.73944 | 38 ft | 8 kts | 50° |
| 2026-05-04 18:52 | 39.54757 | 2.73944 | 38 ft | 10 kts | 341° |
| 2026-05-04 18:52 | 39.54807 | 2.73977 | 38 ft | 8 kts | 50° |
| 2026-05-04 18:53 | 39.54864 | 2.73988 | 38 ft | 13 kts | 329° |
| 2026-05-04 18:53 | 39.54941 | 2.73928 | 38 ft | 11 kts | 328° |
| 2026-05-04 18:53 | 39.54987 | 2.73878 | 38 ft | 6 kts | 286° |
| 2026-05-04 18:53 | 39.54973 | 2.73830 | 38 ft | 6 kts | 242° |
| 2026-05-04 18:54 | 39.54956 | 2.73789 | 38 ft | 4 kts | 239° |
| 2026-05-04 18:54 | 39.54949 | 2.73775 | 38 ft | 1 kts | 239° |
| 2026-05-04 18:54 | 39.54947 | 2.73771 | 38 ft | 0 kts | 239° |